20:04
Airports
History
Links
Donate
Help keep this website running!
PayPal
Bitcoin
This page is community maintained. The information is intended for PC simulator navigation or reference.
Always use approved charts for navigation.
6J5
Dabbs
Dabbs (6J5)
Mayesville, South Carolina, United States (29104)
4
Lat/Lng:33° 54' 40.57" N / 80° 8' 29.27" W
33.91127 / -80.141464
Elevation:125'ft / 38mMSL
ID / ICAO:6J5
Runways:1
Longest:02-20
Grass 917m / 3,010ft
Nearby Weather19:56 GMT 2018-01-21
Nearby weather at KSSC, Shaw Afb located 19.3 nautical miles from 6J5
Altimeter: 30.17
Visibility: 10.0 statute miles
Wind: 0 knots (from 000°)
Temp: 21°c / 70°f
Humidity: 32.7%

METAR: KSSC 211956Z AUTO 00000KT 10SM CLR 21/04 A3017 RMK AO2 SLP218 T02140040 $

(Powered by phpweather)
Nearby VORs <50NM
Nearby NDBs
Runway 02 / 20
Dimensions:917.3 x 18.3m 3010' x 60'ft
Surface:Grass
Runway 02 [A]Runway 20 [B]
Heading:015°TH 195°TH
Lat:
Lng:
33° 54' 26.27"N
80° 8' 33.89"W
33° 54' 54.88"N
80° 8' 24.65"W
User Notes and Comments
33° 54' 40.57" N / 80° 8' 29.27" W
Distance To
Airport ID:
Nearby Airports
(R) Byrd Field 8.3 NM
SC48 ESE 102°
4 Tallon Field 13.1 NM
SC27 N
(U) Sumter 13.9 NM
KSMS WNW 294°
(R) Pocotaligo 14.5 NM
SC38 SSE 166°
(R) Palmetto Air Plantation 17.9 NM
SC41 SSW 199°
(R) Lamar 18.1 NM
SC19 N 11°
(R) Shaw Afb 19.3 NM
KSSC ( WX ) WNW 282°
VFR Chart
Flight Planning at SkyVector.com